Terminal Aerodrome Forecast
Issued by NWS

Home | Current Version | Previous Version | Text Only | Print | Product List | Glossary On
Versions: 1 2 3 4 5 6 7 8 9 10 11 12 13 14 15 16 17 18 19 20 21 22 23 24 25 26
000
FTUS41 KBTV 031729
TAFPBG
TAF
KPBG 031729Z 0318/0418 14015KT P6SM SCT120 BKN250
     FM032100 16009KT P6SM VCSH BKN045 OVC090
     FM032300 16012KT 3SM -SN BR SCT020 OVC035
     FM040400 18011G17KT P6SM VCSH SCT015 OVC025
     FM041200 26012G20KT P6SM FEW080 SCT150=

USA.gov is the U.S. government's official web portal to all federal, state and local government web resources and services.